Flight Track Log - Related Links

Times and Time Zones

All times are in EDT time to prevent confusion due to time zone crossing. See the EJA583 flight status page for this flight to view local times or setup timezone preferences in your user account.

Time Position Orientation Groundspeed Altitude Reporting Facility
EDT Latitude Longitude Course Direction KTS MPH feet Rate Location/Type
Tue 11:15:04 PM 33.1167 -117.3833 270° West 210 242 3,900  Level Southern California TRACON
Tue 11:16:04 PM 33.1000 -117.4500 253° West 260 299 6,700 2,540 Climbing Southern California TRACON
Tue 11:17:21 PM 33.0897 -117.5553 263° West 264 304 9,700 2,201 Climbing Los Angeles Center
Tue 11:18:23 PM 33.0772 -117.6525 261° West 286 329 11,800 2,468 Climbing Los Angeles Center
Tue 11:19:25 PM 33.1489 -117.7344 316° Northwest 306 352 14,800 2,439 Climbing Los Angeles Center
Tue 11:20:26 PM 33.2083 -117.8094 313° West 310 357 16,800 1,902 Climbing Los Angeles Center
Tue 11:21:28 PM 33.2703 -117.8922 312° West 325 374 18,700 1,756 Climbing Los Angeles Center
Tue 11:22:29 PM 33.3339 -117.9753 313° West 336 387 20,400 1,422 Climbing Los Angeles Center
Tue 11:23:43 PM 33.4033 -118.0633 313° West 355 409 21,900 1,456 Climbing Los Angeles Center
Tue 11:24:45 PM 33.4878 -118.1731 313° West 369 425 23,700 1,610 Climbing Los Angeles Center
Tue 11:25:46 PM 33.5728 -118.2447 325° Northwest 378 435 25,200 1,317 Climbing Los Angeles Center
Tue 11:26:48 PM 33.6792 -118.3003 337° Northwest 392 451 26,400 1,113 Climbing Los Angeles Center
Tue 11:27:50 PM 33.7842 -118.3544 337° Northwest 406 467 27,500 1,073 Climbing Los Angeles Center
Tue 11:28:51 PM 33.8972 -118.4136 337° Northwest 418 481 28,600 1,024 Climbing Los Angeles Center
Tue 11:29:53 PM 34.0106 -118.4553 343° North 426 490 29,600 1,073 Climbing Los Angeles Center
Tue 11:30:54 PM 34.1500 -118.4972 346° North 430 495 30,800 1,073 Climbing Los Angeles Center
Tue 11:31:56 PM 34.2667 -118.5319 346° North 432 497 31,800 968 Climbing Los Angeles Center
Tue 11:32:58 PM 34.3844 -118.5672 346° North 434 499 32,800 1,024 Climbing Los Angeles Center
Tue 11:33:59 PM 34.5028 -118.6036 346° North 437 503 33,900 1,024 Climbing Los Angeles Center
Tue 11:35:01 PM 34.6222 -118.6397 346° North 441 507 34,900 968 Climbing Los Angeles Center
Tue 11:36:03 PM 34.7433 -118.6750 347° North 446 513 35,900 968 Climbing Los Angeles Center
Tue 11:37:05 PM 34.8642 -118.7128 346° North 448 516 36,900 1,073 Climbing Los Angeles Center
Tue 11:38:06 PM 35.0086 -118.7558 346° North 457 526 38,100 1,082 Climbing Los Angeles Center
Tue 11:39:07 PM 35.1319 -118.7939 346° North 459 528 39,100 927 Climbing Los Angeles Center
Tue 11:40:09 PM 35.2581 -118.8308 347° North 469 540 40,000 435 Climbing Los Angeles Center
Tue 11:41:11 PM 35.3828 -118.8681 346° North 464 534 40,000  Level Los Angeles Center
Tue 11:42:12 PM 35.5117 -118.9094 345° North 472 543 40,000  Level Los Angeles Center
Tue 11:43:14 PM 35.6425 -118.9489 346° North 480 552 40,000  Level Los Angeles Center
Tue 11:44:15 PM 35.7978 -118.9975 346° North 482 555 40,000  Level Los Angeles Center
Tue 11:45:17 PM 35.9261 -119.0389 345° North 478 550 40,000  Level Los Angeles Center
Tue 11:46:31 PM 36.0764 -119.0861 346° North 470 541 40,000  Level Los Angeles Center
Tue 11:47:33 PM 36.2017 -119.1253 346° North 467 537 40,000  Level Los Angeles Center
Tue 11:48:34 PM 36.3244 -119.1647 345° North 461 531 40,000  Level Los Angeles Center
Tue 11:49:36 PM 36.4489 -119.2036 346° North 462 532 40,000  Level Los Angeles Center
Tue 11:50:37 PM 36.5725 -119.2442 345° North 461 531 40,000  Level Los Angeles Center
Tue 11:51:48 PM 36.7186 -119.2883 346° North 457 526 40,000  Level Oakland Center
Tue 11:52:49 PM 36.8658 -119.3344 346° North 457 526 40,000  Level Oakland Center
Tue 11:53:51 PM 36.9892 -119.3744 345° North 459 528 40,000  Level Oakland Center
Tue 11:54:52 PM 37.1131 -119.4136 346° North 462 532 40,000  Level Oakland Center
Tue 11:55:53 PM 37.2369 -119.4525 346° North 461 531 40,000  Level Oakland Center
Tue 11:56:54 PM 37.3578 -119.4922 345° North 463 533 40,000  Level Oakland Center
Tue 11:57:55 PM 37.4828 -119.5328 346° North 464 534 40,000  Level Oakland Center
Tue 11:58:56 PM 37.6081 -119.5728 346° North 466 536 40,000  Level Oakland Center
Tue 11:59:57 PM 37.7322 -119.6147 345° North 465 535 40,000  Level Oakland Center
Wed 12:00:58 AM 37.8572 -119.6553 346° North 464 534 40,000  Level Oakland Center
Wed 12:01:59 AM 38.0075 -119.7039 346° North 467 537 40,000  Level Oakland Center
Wed 12:03:00 AM 38.1314 -119.7447 345° North 462 532 40,000  Level Oakland Center
Wed 12:04:02 AM 38.2533 -119.7869 345° North 457 526 40,000  Level Oakland Center
Wed 12:05:03 AM 38.3772 -119.8269 346° North 460 529 40,000  Level Oakland Center
Wed 12:06:04 AM 38.5028 -119.8683 346° North 466 536 40,000  Level Oakland Center
Wed 12:07:05 AM 38.6275 -119.9097 345° North 465 535 40,000  Level Oakland Center
Wed 12:08:06 AM 38.7478 -119.9522 345° North 454 522 40,000  Level Oakland Center
Wed 12:09:07 AM 38.8689 -119.9925 345° North 450 518 40,000  Level Oakland Center
Wed 12:10:08 AM 38.9892 -120.0331 345° North 452 520 40,000  Level Oakland Center
Wed 12:11:09 AM 39.1131 -120.0764 345° North 457 526 40,000  Level Oakland Center
Wed 12:12:10 AM 39.2606 -120.1261 345° North 457 526 40,000  Level Oakland Center
Wed 12:13:11 AM 39.3806 -120.1669 345° North 453 521 40,000  Level Oakland Center
Wed 12:14:12 AM 39.5056 -120.2097 345° North 461 531 40,000  Level Oakland Center
Wed 12:15:13 AM 39.6300 -120.2519 345° North 461 531 40,000  Level Oakland Center
Wed 12:16:14 AM 39.7542 -120.2972 344° North 463 533 40,000  Level Oakland Center
Wed 12:17:16 AM 39.8769 -120.3375 346° North 457 526 40,000  Level Oakland Center
Wed 12:18:17 AM 40.0119 -120.3867 344° North 459 528 40,000  Level Oakland Center
Wed 12:19:18 AM 40.1281 -120.4269 345° North 458 527 40,000  Level Oakland Center
Wed 12:20:19 AM 40.2450 -120.4664 346° North 455 524 40,000  Level Oakland Center
Wed 12:21:20 AM 40.3692 -120.5097 345° North 459 528 40,000  Level Oakland Center
Wed 12:22:21 AM 40.5147 -120.5606 345° North 457 526 40,000  Level Oakland Center
Wed 12:23:22 AM 40.6172 -120.5969 345° North 461 531 40,000  Level Oakland Center
Wed 12:24:23 AM 40.7694 -120.6525 345° North 472 543 40,000  Level Oakland Center
Wed 12:25:25 AM 40.8983 -120.6986 345° North 478 550 40,000  Level Oakland Center
Wed 12:26:26 AM 41.0272 -120.7461 344° North 482 555 40,000  Level Oakland Center
Wed 12:27:27 AM 41.1564 -120.7928 345° North 484 557 40,000  Level Oakland Center
Wed 12:28:28 AM 41.2839 -120.8394 345° North 479 551 40,000  Level Oakland Center
Wed 12:29:29 AM 41.4114 -120.8869 344° North 478 550 40,000  Level Oakland Center
Wed 12:30:30 AM 41.5403 -120.9347 344° North 481 554 40,000  Level Oakland Center
Wed 12:31:31 AM 41.6672 -120.9811 345° North 477 549 40,000  Level Oakland Center
Wed 12:32:32 AM 41.7947 -121.0278 345° North 476 548 40,000  Level Oakland Center
Wed 12:33:34 AM 41.9453 -121.0853 344° North 473 544 40,000  Level Oakland Center
Wed 12:34:35 AM 42.0703 -121.1314 345° North 470 541 40,000  Level Oakland Center
Wed 12:35:44 AM 42.1978 -121.1778 345° North 474 545 40,000  Level Seattle Center
Wed 12:36:45 AM 42.3497 -121.2350 344° North 477 549 40,000  Level Seattle Center
Wed 12:37:46 AM 42.4758 -121.2833 344° North 477 549 40,000  Level Seattle Center
Wed 12:38:46 AM 42.6028 -121.3317 344° North 477 549 40,000  Level Seattle Center
Wed 12:39:47 AM 42.7303 -121.3789 345° North 476 548 40,000  Level Seattle Center
Wed 12:40:48 AM 42.8569 -121.4308 343° North 478 550 40,000  Level Seattle Center
Wed 12:41:48 AM 42.9853 -121.4778 345° North 479 551 40,000  Level Seattle Center
Wed 12:42:49 AM 43.1142 -121.5294 344° North 483 556 40,000  Level Seattle Center
Wed 12:43:50 AM 43.2417 -121.5783 344° North 478 550 40,000  Level Seattle Center
Wed 12:44:50 AM 43.3678 -121.6269 344° North 474 545 40,000  Level Seattle Center
Wed 12:45:51 AM 43.4942 -121.6761 344° North 473 544 40,000  Level Seattle Center
Wed 12:46:52 AM 43.6219 -121.7269 344° North 480 552 40,000  Level Seattle Center
Wed 12:47:52 AM 43.7511 -121.7778 344° North 483 556 40,000  Level Seattle Center
Wed 12:48:53 AM 43.8964 -121.8289 346° North 480 552 40,000  Level Seattle Center
Wed 12:49:54 AM 44.0272 -121.8814 344° North 482 555 40,000  Level Seattle Center
Wed 12:50:54 AM 44.1564 -121.9339 344° North 493 567 40,000  Level Seattle Center
Wed 12:51:55 AM 44.2836 -121.9850 344° North 483 556 40,000  Level Seattle Center
Wed 12:52:56 AM 44.4114 -122.0403 343° North 482 555 40,000  Level Seattle Center
Wed 12:53:56 AM 44.5208 -122.1406 327° Northwest 473 544 40,000  Level Seattle Center
Wed 12:54:57 AM 44.6264 -122.2450 325° Northwest 467 537 40,000  Level Seattle Center
Wed 12:55:58 AM 44.7308 -122.3481 325° Northwest 463 533 40,000  Level Seattle Center
Wed 12:56:58 AM 44.8347 -122.4531 324° Northwest 463 533 40,000  Level Seattle Center
Wed 12:57:59 AM 44.9419 -122.5633 324° Northwest 463 533 40,000  Level Seattle Center
Wed 12:59:00 AM 45.0556 -122.6467 333° Northwest 478 550 40,000  Level Seattle Center
Wed 01:00:00 AM 45.1858 -122.6450 North 477 549 40,000  Level Seattle Center
Wed 01:01:01 AM 45.3406 -122.6297 North 470 541 40,000  Level Seattle Center
Wed 01:02:02 AM 45.4689 -122.6161 North 466 536 40,000  Level Seattle Center
Wed 01:03:02 AM 45.5997 -122.6042 North 472 543 40,000 -645 Level Seattle Center
Wed 01:04:03 AM 45.7314 -122.5931 North 476 548 38,700 -2,066 Descending Seattle Center
Wed 01:05:04 AM 45.8631 -122.6181 352° North 481 554 35,800 -2,826 Descending Seattle Center
Wed 01:06:04 AM 45.9933 -122.6508 350° North 479 551 33,000 -2,777 Descending Seattle Center
Wed 01:07:05 AM 46.1261 -122.6822 351° North 482 555 30,200 -2,876 Descending Seattle Center
Wed 01:08:05 AM 46.2675 -122.7208 349° North 492 566 27,200 -2,876 Descending Seattle Center
Wed 01:09:06 AM 46.3961 -122.7572 349° North 480 552 24,400 -2,557 Descending Seattle Center
Wed 01:10:07 AM 46.5108 -122.7886 349° North 435 501 22,000 -2,430 Descending Seattle Center
Wed 01:11:07 AM 46.6233 -122.8150 351° North 418 481 19,500 -2,579 Descending Seattle Center
Wed 01:12:01 AM 46.7394 -122.8433 351° North 417 480 17,100 -2,400 Descending Seattle Center
Wed 01:13:02 AM 46.8389 -122.8681 350° North 341 392 14,900 -2,066 Descending Seattle Center
Wed 01:14:03 AM 46.9269 -122.8922 349° North 306 352 12,900 -1,930 Descending Seattle Center
Wed 01:14:57 AM 47.0014 -122.8619 16° North 308 354 11,200 -1,785 Descending Seattle Center
Wed 01:16:04 AM 47.0689 -122.7772 41° Northeast 297 342 9,300 -1,795 Descending Seattle Center
Wed 01:17:04 AM 47.1300 -122.7022 40° Northeast 286 329 7,400 -1,670 Descending Seattle Center
Wed 01:17:59 AM 47.1819 -122.6350 41° Northeast 267 307 6,100 -1,190 Descending Seattle Center
Wed 01:19:00 AM 47.2336 -122.5678 41° Northeast 245 282 5,100 -984 Descending Seattle Center
Wed 01:20:01 AM 47.2892 -122.5147 33° Northeast 210 242 4,100 -709 Descending Seattle Center
Wed 01:21:07 AM 47.3231 -122.4472 53° Northeast 203 234 3,600 -545 Descending Seattle Center
Wed 01:22:02 AM 47.3453 -122.3761 65° Northeast 198 228 3,000 -776 Descending Seattle Center
Wed 01:23:03 AM 47.3692 -122.3042 64° Northeast 202 232 2,100 -446 Descending Seattle Center
Wed 01:24:03 AM 47.3931 -122.2319 64° Northeast 179 206 2,100 -45 Level Seattle Center
Wed 01:25:15 AM 47.4350 -122.2222 North 154 177 2,000 -364 Descending Seattle Center
Wed 01:26:15 AM 47.4656 -122.2492 329° Northwest 130 150 1,300 -645 Descending Seattle Center
Wed 01:27:16 AM 47.4933 -122.2719 331° Northwest 109 125 700 -595 Descending Seattle Center
Wed 01:28:16 AM 47.5192 -122.2936 330° Northwest 111 128 100 -600 Descending Seattle Center

Login

Don't have an account? Register now (free) for customized features, flight alerts, and more!